createdAt,value
2019-02-15T00:00:13.274Z,989.03
2019-02-15T00:01:23.302Z,989.03
2019-02-15T00:02:33.228Z,989.04
2019-02-15T00:03:43.150Z,989
2019-02-15T00:04:53.072Z,989.02
2019-02-15T00:06:03.199Z,988.99
2019-02-15T00:07:13.267Z,988.97
2019-02-15T00:08:23.190Z,989.03
2019-02-15T00:09:33.191Z,989.05
2019-02-15T00:10:43.133Z,989.11
2019-02-15T00:11:53.056Z,989.12
2019-02-15T00:13:02.982Z,989.12
2019-02-15T00:14:21.271Z,989.19
2019-02-15T00:15:31.192Z,989.22
2019-02-15T00:16:41.115Z,989.22
2019-02-15T00:17:51.037Z,989.17
2019-02-15T00:19:01.060Z,989.11
2019-02-15T00:20:10.735Z,989.1
2019-02-15T00:21:20.662Z,989.05
2019-02-15T00:22:30.589Z,988.97
2019-02-15T00:23:40.526Z,989
2019-02-15T00:24:50.507Z,988.91
2019-02-15T00:26:00.446Z,988.93
2019-02-15T00:27:10.367Z,988.84
2019-02-15T00:28:20.306Z,988.8
2019-02-15T00:29:30.227Z,988.83
2019-02-15T00:30:40.151Z,988.93
2019-02-15T00:31:50.069Z,988.96
2019-02-15T00:33:00.001Z,989.03
2019-02-15T00:34:09.921Z,989.04
2019-02-15T00:35:19.845Z,989
2019-02-15T00:36:29.819Z,988.96
2019-02-15T00:37:39.753Z,988.97
2019-02-15T00:38:49.673Z,989.01
2019-02-15T00:39:59.639Z,989.09
2019-02-15T00:41:09.564Z,989.16
2019-02-15T00:42:19.581Z,989.18
2019-02-15T00:43:29.502Z,989.16
2019-02-15T00:44:39.423Z,989.08
2019-02-15T00:45:49.355Z,988.98
2019-02-15T00:46:59.481Z,988.88
2019-02-15T00:48:09.514Z,988.92
2019-02-15T00:49:19.497Z,988.9
2019-02-15T00:50:29.416Z,988.98
2019-02-15T00:51:39.343Z,989.03
2019-02-15T00:52:49.272Z,989.06
2019-02-15T00:53:59.344Z,989.07
2019-02-15T00:55:09.267Z,989.03
2019-02-15T00:56:19.190Z,988.99
2019-02-15T00:57:29.115Z,988.97
2019-02-15T00:58:39.046Z,989.01
2019-02-15T00:59:49.066Z,989.08
2019-02-15T01:00:59.005Z,989.13
2019-02-15T01:02:08.932Z,989.15
2019-02-15T01:03:18.855Z,989.19
2019-02-15T01:04:28.537Z,989.21
2019-02-15T01:05:38.465Z,989.27
2019-02-15T01:06:48.397Z,989.3
2019-02-15T01:07:58.318Z,989.31
2019-02-15T01:09:08.238Z,989.27
2019-02-15T01:10:18.160Z,989.32
2019-02-15T01:11:28.081Z,989.39
2019-02-15T01:12:38.003Z,989.35
2019-02-15T01:13:47.925Z,989.38
2019-02-15T01:14:57.850Z,989.39
2019-02-15T01:16:07.852Z,989.36
2019-02-15T01:17:17.573Z,989.34
2019-02-15T01:18:27.523Z,989.42
2019-02-15T01:19:37.443Z,989.38
2019-02-15T01:20:47.372Z,989.35
2019-02-15T01:21:57.295Z,989.38
2019-02-15T01:23:07.321Z,989.39
2019-02-15T01:24:17.243Z,989.3
2019-02-15T01:25:27.162Z,989.31
2019-02-15T01:26:37.091Z,989.36
2019-02-15T01:27:47.066Z,989.41
2019-02-15T01:28:56.837Z,989.4
2019-02-15T01:30:06.772Z,989.46
2019-02-15T01:31:16.697Z,989.39
2019-02-15T01:32:26.624Z,989.39
2019-02-15T01:33:36.551Z,989.42
2019-02-15T01:34:46.583Z,989.37
2019-02-15T01:35:56.502Z,989.35
2019-02-15T01:37:06.424Z,989.3
2019-02-15T01:38:16.348Z,989.3
2019-02-15T01:39:26.275Z,989.47
2019-02-15T01:40:36.249Z,989.3
2019-02-15T01:41:46.174Z,989.3
2019-02-15T01:42:56.107Z,989.3
2019-02-15T01:44:06.024Z,989.3
2019-02-15T01:45:15.956Z,989.38
2019-02-15T01:46:25.999Z,989.27
2019-02-15T01:47:35.921Z,989.31
2019-02-15T01:48:47.795Z,989.36
2019-02-15T01:49:57.720Z,989.4
2019-02-15T01:51:07.661Z,989.37
2019-02-15T01:52:17.603Z,989.38
2019-02-15T01:53:27.541Z,989.37
2019-02-15T01:54:37.459Z,989.39
2019-02-15T01:55:47.177Z,989.36
2019-02-15T01:56:57.116Z,989.33
2019-02-15T01:58:07.038Z,989.27
2019-02-15T01:59:17.012Z,989.24
2019-02-15T02:00:26.950Z,989.25
2019-02-15T02:01:36.976Z,989.29
2019-02-15T02:02:46.914Z,989.27
2019-02-15T02:03:56.849Z,989.2
2019-02-15T02:05:06.797Z,989.28
2019-02-15T02:06:16.748Z,989.3
2019-02-15T02:07:26.687Z,989.3
2019-02-15T02:08:36.612Z,989.3
2019-02-15T02:09:46.634Z,989.28
2019-02-15T02:10:56.576Z,989.26
2019-02-15T02:12:06.517Z,989.26
2019-02-15T02:13:16.433Z,989.2
2019-02-15T02:14:26.362Z,989.26
2019-02-15T02:15:36.398Z,989.31
2019-02-15T02:16:46.320Z,989.25
2019-02-15T02:17:56.241Z,989.27
2019-02-15T02:19:06.160Z,989.3
2019-02-15T02:20:16.094Z,989.3
2019-02-15T02:21:26.143Z,989.33
2019-02-15T02:22:36.074Z,989.31
2019-02-15T02:23:45.995Z,989.37
2019-02-15T02:24:55.931Z,989.39
2019-02-15T02:26:05.884Z,989.47
2019-02-15T02:27:15.821Z,989.36
2019-02-15T02:28:25.797Z,989.34
2019-02-15T02:29:35.496Z,989.35
2019-02-15T02:30:45.423Z,989.32
2019-02-15T02:31:55.351Z,989.32
2019-02-15T02:33:05.420Z,989.38
2019-02-15T02:34:15.388Z,989.33
2019-02-15T02:35:25.315Z,989.33
2019-02-15T02:36:35.246Z,989.23
2019-02-15T02:37:45.182Z,989.24
2019-02-15T02:38:55.230Z,989.21
2019-02-15T02:40:05.166Z,989.18
2019-02-15T02:41:15.101Z,989.17
2019-02-15T02:42:25.047Z,989.12
2019-02-15T02:43:34.979Z,989.17
2019-02-15T02:44:44.933Z,989.07
2019-02-15T02:45:54.863Z,989.08
2019-02-15T02:47:04.790Z,988.95
2019-02-15T02:48:14.716Z,989.01
2019-02-15T02:49:24.694Z,989.01
2019-02-15T02:50:34.728Z,989.03
2019-02-15T02:51:44.686Z,988.95
2019-02-15T02:52:54.627Z,988.98
2019-02-15T02:54:04.567Z,989.03
2019-02-15T02:55:14.527Z,989.04
2019-02-15T02:56:24.461Z,989.12
2019-02-15T02:57:34.400Z,989.06
2019-02-15T02:58:44.330Z,989.11
2019-02-15T02:59:54.253Z,989.17
2019-02-15T03:01:03.950Z,989.2
2019-02-15T03:02:13.878Z,989.26
2019-02-15T03:03:23.870Z,989.22
2019-02-15T03:04:33.881Z,989.25
2019-02-15T03:05:43.827Z,989.25
2019-02-15T03:06:53.752Z,989.2
2019-02-15T03:08:03.721Z,989.29
2019-02-15T03:09:13.659Z,989.32
2019-02-15T03:10:23.585Z,989.31
2019-02-15T03:11:33.647Z,989.33
2019-02-15T03:12:43.609Z,989.34
2019-02-15T03:13:53.593Z,989.29
2019-02-15T03:15:14.350Z,989.28
2019-02-15T03:16:24.285Z,989.26
2019-02-15T03:17:34.235Z,989.26
2019-02-15T03:18:44.165Z,989.31
2019-02-15T03:19:54.149Z,989.31
2019-02-15T03:21:04.174Z,989.33
2019-02-15T03:22:14.124Z,989.31
2019-02-15T03:23:24.085Z,989.31
2019-02-15T03:24:34.009Z,989.3
2019-02-15T03:25:43.990Z,989.24
2019-02-15T03:26:53.920Z,989.21
2019-02-15T03:28:03.884Z,989.23
2019-02-15T03:29:13.833Z,989.19
2019-02-15T03:30:23.782Z,989.19
2019-02-15T03:31:33.886Z,989.27
2019-02-15T03:32:43.894Z,989.29
2019-02-15T03:33:53.890Z,989.33
2019-02-15T03:35:03.746Z,989.36
2019-02-15T03:36:13.731Z,989.29
2019-02-15T03:37:23.763Z,989.31
2019-02-15T03:38:33.503Z,989.35
2019-02-15T03:39:43.461Z,989.31
2019-02-15T03:40:53.403Z,989.35
2019-02-15T03:42:03.358Z,989.37
2019-02-15T03:43:13.141Z,989.34
2019-02-15T03:44:23.070Z,989.42
2019-02-15T03:45:32.998Z,989.38
2019-02-15T03:46:42.971Z,989.41
2019-02-15T03:47:52.912Z,989.45
2019-02-15T03:49:02.836Z,989.37
2019-02-15T03:50:12.779Z,989.42
2019-02-15T03:51:22.727Z,989.4
2019-02-15T03:52:32.733Z,989.41
2019-02-15T03:53:42.665Z,989.38
2019-02-15T03:54:52.696Z,989.45
2019-02-15T03:56:02.643Z,989.35
2019-02-15T03:57:12.608Z,989.36
2019-02-15T03:58:22.563Z,989.38
2019-02-15T03:59:32.529Z,989.44
2019-02-15T04:00:42.631Z,989.4
2019-02-15T04:01:52.582Z,989.44
2019-02-15T04:03:02.518Z,989.34
2019-02-15T04:04:12.495Z,989.4
2019-02-15T04:05:22.427Z,989.36
2019-02-15T04:06:32.487Z,989.31
2019-02-15T04:07:42.448Z,989.38
2019-02-15T04:08:52.140Z,989.41
2019-02-15T04:10:02.063Z,989.39
2019-02-15T04:11:11.999Z,989.38
2019-02-15T04:12:22.159Z,989.32
2019-02-15T04:13:32.849Z,989.42
2019-02-15T04:14:42.783Z,989.44
2019-02-15T04:15:52.727Z,989.42
2019-02-15T04:17:02.664Z,989.44
2019-02-15T04:18:12.654Z,989.48
2019-02-15T04:19:22.330Z,989.47
2019-02-15T04:20:32.268Z,989.53
2019-02-15T04:21:42.198Z,989.58
2019-02-15T04:22:52.150Z,989.65
2019-02-15T04:24:02.082Z,989.67
2019-02-15T04:25:13.685Z,989.67
2019-02-15T04:26:23.633Z,989.67
2019-02-15T04:27:33.589Z,989.66
2019-02-15T04:28:43.538Z,989.66
2019-02-15T04:29:53.556Z,989.59
2019-02-15T04:31:03.495Z,989.59
2019-02-15T04:32:13.468Z,989.6
2019-02-15T04:33:23.402Z,989.68
2019-02-15T04:34:33.341Z,989.75
2019-02-15T04:35:43.286Z,989.7
2019-02-15T04:36:53.246Z,989.75
2019-02-15T04:38:02.932Z,989.73
2019-02-15T04:39:12.887Z,989.79
2019-02-15T04:40:22.818Z,989.81
2019-02-15T04:41:32.808Z,989.69
2019-02-15T04:42:42.781Z,989.7
2019-02-15T04:43:52.712Z,989.62
2019-02-15T04:45:02.643Z,989.61
2019-02-15T04:46:12.597Z,989.54
2019-02-15T04:47:22.541Z,989.54
2019-02-15T04:48:32.482Z,989.52
2019-02-15T04:49:42.425Z,989.55
2019-02-15T04:50:52.382Z,989.42
2019-02-15T04:52:02.339Z,989.41
2019-02-15T04:53:12.279Z,989.41
2019-02-15T04:54:22.209Z,989.4
2019-02-15T04:55:32.136Z,989.47
2019-02-15T04:56:42.097Z,989.47
2019-02-15T04:57:52.029Z,989.47
2019-02-15T04:59:02.032Z,989.44
2019-02-15T05:00:11.962Z,989.4
2019-02-15T05:01:21.928Z,989.36
2019-02-15T05:02:31.883Z,989.36
2019-02-15T05:03:41.817Z,989.3
2019-02-15T05:04:51.842Z,989.24
2019-02-15T05:06:01.781Z,989.37
2019-02-15T05:07:11.728Z,989.43
2019-02-15T05:08:21.656Z,989.33
2019-02-15T05:09:31.582Z,989.3
2019-02-15T05:10:41.614Z,989.37
2019-02-15T05:11:51.576Z,989.37
2019-02-15T05:13:01.513Z,989.36
2019-02-15T05:14:11.457Z,989.38
2019-02-15T05:15:21.385Z,989.42
2019-02-15T05:16:31.308Z,989.51
2019-02-15T05:17:41.265Z,989.59
2019-02-15T05:18:51.222Z,989.6
2019-02-15T05:20:01.150Z,989.6
2019-02-15T05:21:12.710Z,989.63
2019-02-15T05:22:22.977Z,989.63
2019-02-15T05:23:32.953Z,989.68
2019-02-15T05:24:42.645Z,989.67
2019-02-15T05:25:52.596Z,989.76
2019-02-15T05:27:02.546Z,989.71
2019-02-15T05:28:12.591Z,989.72
2019-02-15T05:29:22.561Z,989.72
2019-02-15T05:30:32.550Z,989.72
2019-02-15T05:31:42.255Z,989.67
2019-02-15T05:32:52.190Z,989.72
2019-02-15T05:34:02.241Z,989.71
2019-02-15T05:35:12.226Z,989.72
2019-02-15T05:36:22.166Z,989.75
2019-02-15T05:37:32.103Z,989.78
2019-02-15T05:38:42.039Z,989.84
2019-02-15T05:39:52.073Z,989.84
2019-02-15T05:41:02.017Z,989.87
2019-02-15T05:42:11.943Z,989.85
2019-02-15T05:43:21.872Z,989.8
2019-02-15T05:44:31.845Z,989.83
2019-02-15T05:45:41.886Z,989.84
2019-02-15T05:46:51.827Z,989.85
2019-02-15T05:48:01.752Z,989.8
2019-02-15T05:49:11.683Z,989.8
2019-02-15T05:50:21.611Z,989.76
2019-02-15T05:51:31.632Z,989.72
2019-02-15T05:52:41.309Z,989.72
2019-02-15T05:53:51.257Z,989.67
2019-02-15T05:55:01.190Z,989.62
2019-02-15T05:56:11.169Z,989.59
2019-02-15T05:57:21.190Z,989.64
2019-02-15T05:58:31.118Z,989.57
2019-02-15T05:59:41.065Z,989.55
2019-02-15T06:00:51.002Z,989.49
2019-02-15T06:02:00.939Z,989.51
2019-02-15T06:03:10.953Z,989.54
2019-02-15T06:04:21.490Z,989.54
2019-02-15T06:05:31.424Z,989.54
2019-02-15T06:06:41.347Z,989.55
2019-02-15T06:07:51.285Z,989.55
2019-02-15T06:09:01.210Z,989.55
2019-02-15T06:10:11.147Z,989.54
2019-02-15T06:11:21.085Z,989.59
2019-02-15T06:12:31.024Z,989.56
2019-02-15T06:13:40.951Z,989.59
2019-02-15T06:14:50.883Z,989.62
2019-02-15T06:16:01.127Z,989.59
2019-02-15T06:17:11.081Z,989.6
2019-02-15T06:18:21.016Z,989.62
2019-02-15T06:19:30.968Z,989.62
2019-02-15T06:20:40.918Z,989.66
2019-02-15T06:21:50.900Z,989.62
2019-02-15T06:23:00.849Z,989.62
2019-02-15T06:24:10.804Z,989.63
2019-02-15T06:25:20.783Z,989.63
2019-02-15T06:26:30.840Z,989.64
2019-02-15T06:27:40.784Z,989.7
2019-02-15T06:28:50.911Z,989.75
2019-02-15T06:30:00.853Z,989.69
2019-02-15T06:31:10.791Z,989.76
2019-02-15T06:32:20.769Z,989.79
2019-02-15T06:33:30.695Z,989.74
2019-02-15T06:34:40.376Z,989.75
2019-02-15T06:35:50.350Z,989.72
2019-02-15T06:37:00.310Z,989.7
2019-02-15T06:38:10.242Z,989.71
2019-02-15T06:39:20.174Z,989.7
2019-02-15T06:40:30.149Z,989.71
2019-02-15T06:41:40.067Z,989.72
2019-02-15T06:42:50.009Z,989.71
2019-02-15T06:43:59.990Z,989.7
2019-02-15T06:45:09.909Z,989.74
2019-02-15T06:46:29.385Z,989.71
2019-02-15T06:47:39.318Z,989.71
2019-02-15T06:48:49.252Z,989.72
2019-02-15T06:49:59.308Z,989.7
2019-02-15T06:51:09.282Z,989.74
2019-02-15T06:52:19.216Z,989.73
2019-02-15T06:53:29.176Z,989.77
2019-02-15T06:54:39.135Z,989.8
2019-02-15T06:55:49.156Z,989.82
2019-02-15T06:56:59.080Z,989.81
2019-02-15T06:58:09.004Z,989.74
2019-02-15T06:59:18.928Z,989.78
2019-02-15T07:00:28.847Z,989.76
2019-02-15T07:01:38.845Z,989.78
2019-02-15T07:02:48.765Z,989.81
2019-02-15T07:03:58.465Z,989.89
2019-02-15T07:05:08.396Z,989.91
2019-02-15T07:06:18.321Z,989.88
2019-02-15T07:07:28.242Z,989.86
2019-02-15T07:08:38.163Z,989.86
2019-02-15T07:09:48.093Z,989.81
2019-02-15T07:10:58.030Z,989.75
2019-02-15T07:12:08.039Z,989.7
2019-02-15T07:13:18.068Z,989.67
2019-02-15T07:14:27.998Z,989.65
2019-02-15T07:15:37.934Z,989.67
2019-02-15T07:16:47.862Z,989.67
2019-02-15T07:17:57.790Z,989.74
2019-02-15T07:19:07.811Z,989.72
2019-02-15T07:20:17.738Z,989.71
2019-02-15T07:21:27.677Z,989.67
2019-02-15T07:22:37.372Z,989.68
2019-02-15T07:23:47.293Z,989.75
2019-02-15T07:24:57.319Z,989.69
2019-02-15T07:26:07.266Z,989.69
2019-02-15T07:27:17.188Z,989.76
2019-02-15T07:28:27.124Z,989.8
2019-02-15T07:29:37.050Z,989.86
2019-02-15T07:30:47.043Z,989.92
2019-02-15T07:31:56.966Z,989.96
2019-02-15T07:33:06.905Z,989.96
2019-02-15T07:34:16.836Z,989.98
2019-02-15T07:35:26.766Z,989.95
2019-02-15T07:36:36.744Z,989.97
2019-02-15T07:37:48.325Z,989.98
2019-02-15T07:38:58.279Z,989.93
2019-02-15T07:40:08.202Z,989.83
2019-02-15T07:41:18.130Z,989.82
2019-02-15T07:42:28.134Z,989.81
2019-02-15T07:43:38.075Z,989.83
2019-02-15T07:44:48.007Z,989.74
2019-02-15T07:45:57.933Z,989.78
2019-02-15T07:47:07.876Z,989.72
2019-02-15T07:48:17.903Z,989.73
2019-02-15T07:49:27.825Z,989.76
2019-02-15T07:50:37.746Z,989.77
2019-02-15T07:51:47.667Z,989.78
2019-02-15T07:52:57.609Z,989.8
2019-02-15T07:54:09.593Z,989.78
2019-02-15T07:55:19.527Z,989.81
2019-02-15T07:56:29.459Z,989.81
2019-02-15T07:57:39.381Z,989.9
2019-02-15T07:58:49.054Z,989.85
2019-02-15T08:00:00.529Z,989.83
2019-02-15T08:01:10.671Z,989.78
2019-02-15T08:02:20.607Z,989.82
2019-02-15T08:03:30.546Z,989.89
2019-02-15T08:04:40.659Z,989.92
2019-02-15T08:05:50.912Z,989.91
2019-02-15T08:07:00.855Z,989.91
2019-02-15T08:08:10.780Z,989.96
2019-02-15T08:09:20.726Z,990.04
2019-02-15T08:10:30.766Z,989.99
2019-02-15T08:11:42.643Z,989.97
2019-02-15T08:12:52.566Z,989.94
2019-02-15T08:14:02.502Z,989.96
2019-02-15T08:15:20.571Z,989.98
2019-02-15T08:16:38.971Z,989.95
2019-02-15T08:17:49.005Z,989.94
2019-02-15T08:18:58.932Z,989.97
2019-02-15T08:20:08.855Z,989.98
2019-02-15T08:21:18.795Z,989.97
2019-02-15T08:22:28.824Z,989.93
2019-02-15T08:23:38.770Z,989.97
2019-02-15T08:24:48.722Z,989.93
2019-02-15T08:25:58.646Z,989.92
2019-02-15T08:27:08.579Z,989.93
2019-02-15T08:28:18.609Z,989.96
2019-02-15T08:29:28.535Z,990.01
2019-02-15T08:30:38.461Z,990.04
2019-02-15T08:31:48.483Z,990.04
2019-02-15T08:32:58.424Z,990.04
2019-02-15T08:34:08.399Z,990.14
2019-02-15T08:35:18.319Z,990.1
2019-02-15T08:36:27.997Z,990.11
2019-02-15T08:37:37.996Z,990.11
2019-02-15T08:38:47.694Z,990.11
2019-02-15T08:39:57.719Z,990.08
2019-02-15T08:41:07.881Z,990.05
2019-02-15T08:42:17.805Z,990.06
2019-02-15T08:43:27.729Z,990.05
2019-02-15T08:44:39.836Z,990
2019-02-15T08:45:49.817Z,990.03
2019-02-15T08:47:08.415Z,989.99
2019-02-15T08:48:18.389Z,989.96
2019-02-15T08:49:28.312Z,989.95
2019-02-15T08:50:38.237Z,989.97
2019-02-15T08:51:48.264Z,990.01
2019-02-15T08:52:58.214Z,989.96
2019-02-15T08:54:08.152Z,990
2019-02-15T08:55:18.078Z,989.97
2019-02-15T08:56:28.023Z,989.94
2019-02-15T08:57:38.051Z,989.95
2019-02-15T08:58:47.732Z,989.94
2019-02-15T08:59:57.700Z,989.94
2019-02-15T09:01:07.859Z,989.92
2019-02-15T09:02:17.784Z,989.91
2019-02-15T09:03:27.709Z,989.99
2019-02-15T09:04:37.636Z,990.02
2019-02-15T09:05:47.568Z,990.02
2019-02-15T09:06:57.495Z,990.04
2019-02-15T09:08:07.431Z,990.04
2019-02-15T09:09:17.462Z,990.07
2019-02-15T09:10:27.384Z,990.09
2019-02-15T09:11:37.312Z,990.11
2019-02-15T09:12:47.388Z,990.11
2019-02-15T09:13:57.324Z,990.07
2019-02-15T09:15:07.304Z,990.06
2019-02-15T09:16:17.231Z,990.05
2019-02-15T09:17:27.400Z,990.07
2019-02-15T09:18:37.372Z,990.02
2019-02-15T09:19:47.307Z,990.07
2019-02-15T09:20:57.357Z,990.1
2019-02-15T09:22:07.306Z,990.09
2019-02-15T09:23:17.227Z,990.04
2019-02-15T09:24:27.177Z,990.09
2019-02-15T09:25:37.109Z,990.04
2019-02-15T09:26:47.037Z,990.05
2019-02-15T09:27:56.971Z,990.03
2019-02-15T09:29:06.900Z,990.03
2019-02-15T09:30:16.821Z,990.03
2019-02-15T09:31:26.751Z,990.07
2019-02-15T09:32:36.729Z,990.02
2019-02-15T09:33:46.665Z,990.04
2019-02-15T09:34:56.599Z,990.03
2019-02-15T09:36:06.533Z,990.01
2019-02-15T09:37:16.459Z,989.99
2019-02-15T09:38:26.437Z,989.99
2019-02-15T09:39:36.371Z,990.01
2019-02-15T09:40:47.200Z,990
2019-02-15T09:41:57.139Z,989.97
2019-02-15T09:43:07.068Z,990
2019-02-15T09:44:17.103Z,989.97
2019-02-15T09:45:26.779Z,989.98
2019-02-15T09:46:38.222Z,989.92
2019-02-15T09:47:48.155Z,989.94
2019-02-15T09:48:58.083Z,989.92
2019-02-15T09:50:09.710Z,989.9
2019-02-15T09:51:20.147Z,989.89
2019-02-15T09:52:30.069Z,989.84
2019-02-15T09:53:39.994Z,989.87
2019-02-15T09:54:49.984Z,989.84
2019-02-15T09:56:00.010Z,989.87
2019-02-15T09:57:09.943Z,989.83
2019-02-15T09:58:19.875Z,989.82
2019-02-15T09:59:29.807Z,989.78
2019-02-15T10:00:39.736Z,989.76
2019-02-15T10:01:49.667Z,989.77
2019-02-15T10:02:59.598Z,989.76
2019-02-15T10:04:09.542Z,989.75
2019-02-15T10:05:19.466Z,989.73
2019-02-15T10:06:29.389Z,989.75
2019-02-15T10:07:39.418Z,989.72
2019-02-15T10:08:49.355Z,989.74
2019-02-15T10:09:59.282Z,989.74
2019-02-15T10:11:09.256Z,989.71
2019-02-15T10:12:19.188Z,989.71
2019-02-15T10:13:29.171Z,989.69
2019-02-15T10:14:39.101Z,989.69
2019-02-15T10:15:49.064Z,989.66
2019-02-15T10:16:58.988Z,989.61
2019-02-15T10:18:08.939Z,989.63
2019-02-15T10:19:22.300Z,989.6
2019-02-15T10:20:32.593Z,989.6
2019-02-15T10:21:42.519Z,989.56
2019-02-15T10:22:52.442Z,989.6
2019-02-15T10:24:02.368Z,989.55
2019-02-15T10:25:12.376Z,989.54
2019-02-15T10:26:22.302Z,989.51
2019-02-15T10:27:32.235Z,989.48
2019-02-15T10:28:42.165Z,989.47
2019-02-15T10:29:52.096Z,989.49
2019-02-15T10:31:03.227Z,989.51
2019-02-15T10:32:13.153Z,989.55
2019-02-15T10:33:23.089Z,989.5
2019-02-15T10:34:33.025Z,989.51
2019-02-15T10:35:42.954Z,989.5
2019-02-15T10:36:52.992Z,989.52
2019-02-15T10:38:02.932Z,989.56
2019-02-15T10:39:12.860Z,989.56
2019-02-15T10:40:22.790Z,989.55
2019-02-15T10:41:32.730Z,989.57
2019-02-15T10:42:42.708Z,989.53
2019-02-15T10:43:52.643Z,989.54
2019-02-15T10:45:02.633Z,989.56
2019-02-15T10:46:12.564Z,989.53
2019-02-15T10:47:24.845Z,989.54
2019-02-15T10:48:35.236Z,989.57
2019-02-15T10:49:45.164Z,989.53
2019-02-15T10:50:55.089Z,989.53
2019-02-15T10:52:05.024Z,989.51
2019-02-15T10:53:14.950Z,989.5
2019-02-15T10:54:25.026Z,989.49
2019-02-15T10:55:34.969Z,989.47
2019-02-15T10:56:45.785Z,989.45
2019-02-15T10:57:55.713Z,989.45
2019-02-15T10:59:05.642Z,989.45
2019-02-15T11:00:16.448Z,989.42
2019-02-15T11:01:26.375Z,989.43
2019-02-15T11:02:36.298Z,989.47
2019-02-15T11:03:46.231Z,989.43
2019-02-15T11:04:56.173Z,989.41
2019-02-15T11:06:06.227Z,989.42
2019-02-15T11:07:16.164Z,989.41
2019-02-15T11:08:26.090Z,989.37
2019-02-15T11:09:36.021Z,989.38
2019-02-15T11:10:45.950Z,989.38
2019-02-15T11:11:55.926Z,989.37
2019-02-15T11:13:05.854Z,989.36
2019-02-15T11:14:15.790Z,989.33
2019-02-15T11:15:25.732Z,989.3
2019-02-15T11:16:35.665Z,989.28
2019-02-15T11:17:54.653Z,989.31
2019-02-15T11:19:04.612Z,989.27
2019-02-15T11:20:14.546Z,989.25
2019-02-15T11:21:24.473Z,989.27
2019-02-15T11:22:34.420Z,989.23
2019-02-15T11:23:44.202Z,989.22
2019-02-15T11:24:54.155Z,989.21
2019-02-15T11:26:04.556Z,989.21
2019-02-15T11:27:14.595Z,989.23
2019-02-15T11:28:24.529Z,989.24
2019-02-15T11:29:34.554Z,989.22
2019-02-15T11:30:44.478Z,989.27
2019-02-15T11:31:54.407Z,989.2
2019-02-15T11:33:04.339Z,989.2
2019-02-15T11:34:14.270Z,989.15
2019-02-15T11:35:24.293Z,989.19
2019-02-15T11:36:34.217Z,989.19
2019-02-15T11:37:44.152Z,989.2
2019-02-15T11:38:54.086Z,989.21
2019-02-15T11:40:04.013Z,989.2
2019-02-15T11:41:14.050Z,989.16
2019-02-15T11:42:23.974Z,989.13
2019-02-15T11:43:33.902Z,989.1
2019-02-15T11:44:43.841Z,989.11
2019-02-15T11:45:53.769Z,989.03
2019-02-15T11:47:03.798Z,989.07
2019-02-15T11:48:13.727Z,989.02
2019-02-15T11:49:23.662Z,988.99
2019-02-15T11:50:33.630Z,989.04
2019-02-15T11:51:43.557Z,989.03
2019-02-15T11:52:53.539Z,988.96
2019-02-15T11:54:03.477Z,988.95
2019-02-15T11:55:13.432Z,988.99
2019-02-15T11:56:23.367Z,988.97
2019-02-15T11:57:33.298Z,988.97
2019-02-15T11:58:43.337Z,988.98
2019-02-15T11:59:53.405Z,988.97
2019-02-15T12:01:03.333Z,988.94
2019-02-15T12:02:13.274Z,988.99
2019-02-15T12:03:23.229Z,989.03
2019-02-15T12:04:33.159Z,989
2019-02-15T12:05:43.086Z,988.98
2019-02-15T12:06:53.253Z,989.03
2019-02-15T12:08:03.181Z,989.06
2019-02-15T12:09:13.121Z,989.04
2019-02-15T12:10:23.105Z,989.02
2019-02-15T12:11:32.790Z,988.99
2019-02-15T12:12:42.732Z,989.05
2019-02-15T12:13:52.677Z,989.03
2019-02-15T12:15:02.607Z,989
2019-02-15T12:16:12.648Z,988.93
2019-02-15T12:17:22.582Z,988.91
2019-02-15T12:18:32.524Z,988.93
2019-02-15T12:19:42.460Z,988.92
2019-02-15T12:20:52.385Z,988.89
2019-02-15T12:22:02.421Z,988.83
2019-02-15T12:23:12.344Z,988.81
2019-02-15T12:24:22.272Z,988.82
2019-02-15T12:25:32.201Z,988.81
2019-02-15T12:26:41.883Z,988.81
2019-02-15T12:27:51.824Z,988.82
2019-02-15T12:29:01.753Z,988.83
2019-02-15T12:30:11.690Z,988.79
2019-02-15T12:31:21.692Z,988.82
2019-02-15T12:32:31.633Z,988.84
2019-02-15T12:33:41.659Z,988.87
2019-02-15T12:34:51.589Z,988.77
2019-02-15T12:36:01.526Z,988.78
2019-02-15T12:37:11.285Z,988.77
2019-02-15T12:38:21.220Z,988.74
2019-02-15T12:39:31.247Z,988.75
2019-02-15T12:40:41.188Z,988.73
2019-02-15T12:41:51.122Z,988.74
2019-02-15T12:43:01.046Z,988.72
2019-02-15T12:44:10.993Z,988.71
2019-02-15T12:45:21.048Z,988.71
2019-02-15T12:46:30.978Z,988.69
2019-02-15T12:47:40.655Z,988.68
2019-02-15T12:48:50.770Z,988.68
2019-02-15T12:50:00.698Z,988.69
2019-02-15T12:51:10.682Z,988.7
2019-02-15T12:52:20.606Z,988.63
2019-02-15T12:53:30.538Z,988.66
2019-02-15T12:54:40.461Z,988.64
2019-02-15T12:55:50.390Z,988.63
2019-02-15T12:57:00.428Z,988.63
2019-02-15T12:58:10.365Z,988.64
2019-02-15T12:59:20.290Z,988.61
2019-02-15T13:00:30.225Z,988.61
2019-02-15T13:01:40.880Z,988.61
2019-02-15T13:02:51.039Z,988.63
2019-02-15T13:04:00.983Z,988.62
2019-02-15T13:05:10.692Z,988.53
2019-02-15T13:06:28.340Z,988.53
2019-02-15T13:07:38.777Z,988.53
2019-02-15T13:08:48.818Z,988.61
2019-02-15T13:09:58.748Z,988.61
2019-02-15T13:11:08.726Z,988.62
2019-02-15T13:12:18.655Z,988.59
2019-02-15T13:13:28.587Z,988.6
2019-02-15T13:14:38.617Z,988.49
2019-02-15T13:15:48.554Z,988.45
2019-02-15T13:16:58.502Z,988.45
2019-02-15T13:18:08.433Z,988.43
2019-02-15T13:19:18.369Z,988.41
2019-02-15T13:20:28.420Z,988.42
2019-02-15T13:21:38.383Z,988.4
2019-02-15T13:22:48.422Z,988.35
2019-02-15T13:23:58.108Z,988.45
2019-02-15T13:25:08.059Z,988.4
2019-02-15T13:26:18.188Z,988.37
2019-02-15T13:27:28.372Z,988.29
2019-02-15T13:28:38.351Z,988.27
2019-02-15T13:29:48.519Z,988.32
2019-02-15T13:30:58.451Z,988.28
2019-02-15T13:32:08.450Z,988.24
2019-02-15T13:33:18.378Z,988.18
2019-02-15T13:34:28.302Z,988.12
2019-02-15T13:35:38.231Z,988.13
2019-02-15T13:36:48.158Z,988.13
2019-02-15T13:37:58.455Z,988.11
2019-02-15T13:39:09.818Z,988.06
2019-02-15T13:40:19.924Z,988.02
2019-02-15T13:41:29.902Z,988.05
2019-02-15T13:42:39.827Z,988.01
2019-02-15T13:43:49.803Z,988.04
2019-02-15T13:45:01.184Z,987.94
2019-02-15T13:46:11.127Z,987.98
2019-02-15T13:47:21.052Z,987.99
2019-02-15T13:48:39.866Z,987.95
2019-02-15T13:49:49.933Z,987.96
2019-02-15T13:50:59.861Z,987.91
2019-02-15T13:52:09.782Z,987.86
2019-02-15T13:53:19.743Z,987.88
2019-02-15T13:54:29.724Z,987.87
2019-02-15T13:55:41.488Z,987.87
2019-02-15T13:56:51.424Z,987.83
2019-02-15T13:58:01.352Z,987.81
2019-02-15T13:59:11.288Z,987.81
2019-02-15T14:00:21.213Z,987.8
2019-02-15T14:01:31.192Z,987.79
2019-02-15T14:02:41.120Z,987.78
2019-02-15T14:03:51.051Z,987.8
2019-02-15T14:05:00.983Z,987.74
2019-02-15T14:06:12.592Z,987.79
2019-02-15T14:07:22.628Z,987.73
2019-02-15T14:08:32.554Z,987.68
2019-02-15T14:09:42.481Z,987.73
2019-02-15T14:10:52.404Z,987.74
2019-02-15T14:12:02.994Z,987.75
2019-02-15T14:13:13.082Z,987.77
2019-02-15T14:14:23.006Z,987.72
2019-02-15T14:15:33.053Z,987.62
2019-02-15T14:16:42.971Z,987.66
2019-02-15T14:17:52.902Z,987.66
2019-02-15T14:19:02.929Z,987.63
2019-02-15T14:20:12.857Z,987.63
2019-02-15T14:21:22.596Z,987.64
2019-02-15T14:22:32.538Z,987.64
2019-02-15T14:23:42.574Z,987.63
2019-02-15T14:24:52.561Z,987.68
2019-02-15T14:26:02.484Z,987.69
2019-02-15T14:27:12.410Z,987.6
2019-02-15T14:28:22.338Z,987.59
2019-02-15T14:29:32.264Z,987.58
2019-02-15T14:30:42.286Z,987.54
2019-02-15T14:31:52.225Z,987.5
2019-02-15T14:33:02.145Z,987.45
2019-02-15T14:34:12.074Z,987.41
2019-02-15T14:35:22.003Z,987.39
2019-02-15T14:36:32.023Z,987.4
2019-02-15T14:37:41.966Z,987.34